createdAt,value
2018-12-21T00:00:43.524Z,9.72
2018-12-21T00:01:43.501Z,9.78
2018-12-21T00:02:44.583Z,9.71
2018-12-21T00:03:43.459Z,9.74
2018-12-21T00:04:43.435Z,9.76
2018-12-21T00:05:43.431Z,9.76
2018-12-21T00:06:43.407Z,9.75
2018-12-21T00:07:43.374Z,9.66
2018-12-21T00:08:43.356Z,9.75
2018-12-21T00:09:43.338Z,9.64
2018-12-21T00:10:43.324Z,9.65
2018-12-21T00:11:43.331Z,9.65
2018-12-21T00:12:43.276Z,9.65
2018-12-21T00:13:43.261Z,9.56
2018-12-21T00:14:43.238Z,9.61
2018-12-21T00:15:43.220Z,9.64
2018-12-21T00:16:43.202Z,9.60
2018-12-21T00:17:43.195Z,9.68
2018-12-21T00:18:43.173Z,9.61
2018-12-21T00:19:43.136Z,9.58
2018-12-21T00:20:43.120Z,9.60
2018-12-21T00:21:43.101Z,9.68
2018-12-21T00:22:43.082Z,9.61
2018-12-21T00:23:43.062Z,9.61
2018-12-21T00:24:43.072Z,9.65
2018-12-21T00:25:43.021Z,9.64
2018-12-21T00:26:42.996Z,9.60
2018-12-21T00:27:43.023Z,9.60
2018-12-21T00:28:42.961Z,9.58
2018-12-21T00:29:42.952Z,9.61
2018-12-21T00:30:42.989Z,9.64
2018-12-21T00:31:42.901Z,9.68
2018-12-21T00:32:42.881Z,9.69
2018-12-21T00:33:42.859Z,9.65
2018-12-21T00:34:42.842Z,9.65
2018-12-21T00:35:42.839Z,9.53
2018-12-21T00:36:42.803Z,9.58
2018-12-21T00:37:42.808Z,9.64
2018-12-21T00:38:42.760Z,9.60
2018-12-21T00:39:42.740Z,9.58
2018-12-21T00:40:42.747Z,9.66
2018-12-21T00:41:42.708Z,9.60
2018-12-21T00:42:42.684Z,9.57
2018-12-21T00:43:42.662Z,9.60
2018-12-21T00:44:42.654Z,9.60
2018-12-21T00:45:42.625Z,9.64
2018-12-21T00:46:42.620Z,9.60
2018-12-21T00:47:42.599Z,9.64
2018-12-21T00:48:42.569Z,9.64
2018-12-21T00:49:42.547Z,9.69
2018-12-21T00:50:42.634Z,9.61
2018-12-21T00:51:42.506Z,9.58
2018-12-21T00:52:42.501Z,9.65
2018-12-21T00:53:42.468Z,9.68
2018-12-21T00:54:42.449Z,9.65
2018-12-21T00:55:42.424Z,9.71
2018-12-21T00:56:42.403Z,9.66
2018-12-21T00:57:42.410Z,9.69
2018-12-21T00:58:42.368Z,9.71
2018-12-21T00:59:42.347Z,9.71
2018-12-21T01:00:42.328Z,9.69
2018-12-21T01:01:42.325Z,9.72
2018-12-21T01:02:42.301Z,9.66
2018-12-21T01:03:42.269Z,9.65
2018-12-21T01:04:42.263Z,9.60
2018-12-21T01:05:42.333Z,9.69
2018-12-21T01:06:42.216Z,9.74
2018-12-21T01:07:42.197Z,9.74
2018-12-21T01:08:42.170Z,9.71
2018-12-21T01:09:42.170Z,9.76
2018-12-21T01:10:42.135Z,9.78
2018-12-21T01:11:42.110Z,9.71
2018-12-21T01:12:42.116Z,9.72
2018-12-21T01:13:42.071Z,9.74
2018-12-21T01:14:42.078Z,9.69
2018-12-21T01:15:42.030Z,9.76
2018-12-21T01:16:42.011Z,9.79
2018-12-21T01:17:42.898Z,9.71
2018-12-21T01:18:41.972Z,9.76
2018-12-21T01:19:41.959Z,9.78
2018-12-21T01:20:41.953Z,9.75
2018-12-21T01:21:41.916Z,9.74
2018-12-21T01:22:41.895Z,9.76
2018-12-21T01:23:41.901Z,9.79
2018-12-21T01:24:41.855Z,9.69
2018-12-21T01:25:41.862Z,9.83
2018-12-21T01:26:41.829Z,9.75
2018-12-21T01:27:41.798Z,9.74
2018-12-21T01:28:41.777Z,9.79
2018-12-21T01:29:41.757Z,9.68
2018-12-21T01:30:41.742Z,9.81
2018-12-21T01:31:41.736Z,9.78
2018-12-21T01:32:41.697Z,9.81
2018-12-21T01:33:41.681Z,9.79
2018-12-21T01:34:41.660Z,9.83
2018-12-21T01:35:41.638Z,9.83
2018-12-21T01:36:41.618Z,9.79
2018-12-21T01:37:41.627Z,9.87
2018-12-21T01:38:41.595Z,9.90
2018-12-21T01:39:41.563Z,9.87
2018-12-21T01:40:41.544Z,9.93
2018-12-21T01:41:41.549Z,9.91
2018-12-21T01:42:41.517Z,9.89
2018-12-21T01:43:41.496Z,9.89
2018-12-21T01:44:41.464Z,9.90
2018-12-21T01:45:41.445Z,9.93
2018-12-21T01:46:41.431Z,9.76
2018-12-21T01:47:41.527Z,9.78
2018-12-21T01:48:41.383Z,9.79
2018-12-21T01:49:41.363Z,9.76
2018-12-21T01:50:41.345Z,9.79
2018-12-21T01:51:47.043Z,9.79
2018-12-21T01:52:41.306Z,9.86
2018-12-21T01:53:41.303Z,9.78
2018-12-21T01:54:41.265Z,9.72
2018-12-21T01:55:41.249Z,9.79
2018-12-21T01:56:41.225Z,9.78
2018-12-21T01:57:41.205Z,9.83
2018-12-21T01:58:41.201Z,9.76
2018-12-21T01:59:41.167Z,9.76
2018-12-21T02:00:41.151Z,9.74
2018-12-21T02:01:41.141Z,9.84
2018-12-21T02:02:41.110Z,9.76
2018-12-21T02:03:41.110Z,9.71
2018-12-21T02:04:41.075Z,9.71
2018-12-21T02:05:41.063Z,9.75
2018-12-21T02:06:41.029Z,9.74
2018-12-21T02:07:41.008Z,9.72
2018-12-21T02:08:40.995Z,9.76
2018-12-21T02:09:40.993Z,9.69
2018-12-21T02:10:40.966Z,9.74
2018-12-21T02:11:40.934Z,9.72
2018-12-21T02:12:40.912Z,9.69
2018-12-21T02:13:40.897Z,9.71
2018-12-21T02:14:40.875Z,9.72
2018-12-21T02:15:40.877Z,9.60
2018-12-21T02:16:40.839Z,9.60
2018-12-21T02:17:40.818Z,9.65
2018-12-21T02:18:40.799Z,9.61
2018-12-21T02:19:40.780Z,9.61
2018-12-21T02:20:40.764Z,9.60
2018-12-21T02:21:40.760Z,9.66
2018-12-21T02:22:40.820Z,9.57
2018-12-21T02:23:40.796Z,9.66
2018-12-21T02:24:40.681Z,9.64
2018-12-21T02:25:40.665Z,9.65
2018-12-21T02:26:40.652Z,9.58
2018-12-21T02:27:40.642Z,9.64
2018-12-21T02:28:40.607Z,9.64
2018-12-21T02:29:40.584Z,9.66
2018-12-21T02:30:40.573Z,9.58
2018-12-21T02:31:40.540Z,9.58
2018-12-21T02:32:40.523Z,9.65
2018-12-21T02:33:40.535Z,9.69
2018-12-21T02:34:40.497Z,9.75
2018-12-21T02:35:40.464Z,9.74
2018-12-21T02:36:40.456Z,9.78
2018-12-21T02:37:40.452Z,9.81
2018-12-21T02:38:40.410Z,9.83
2018-12-21T02:39:40.391Z,9.81
2018-12-21T02:40:40.365Z,9.84
2018-12-21T02:41:40.372Z,9.87
2018-12-21T02:42:40.325Z,9.84
2018-12-21T02:43:40.327Z,9.91
2018-12-21T02:44:40.396Z,10.01
2018-12-21T02:45:40.276Z,9.97
2018-12-21T02:46:40.268Z,9.96
2018-12-21T02:47:40.231Z,9.91
2018-12-21T02:48:40.302Z,9.90
2018-12-21T02:49:40.188Z,9.97
2018-12-21T02:50:40.177Z,9.99
2018-12-21T02:51:40.155Z,10.05
2018-12-21T02:52:40.148Z,9.99
2018-12-21T02:53:40.113Z,9.99
2018-12-21T02:54:40.114Z,10.01
2018-12-21T02:55:40.076Z,10.04
2018-12-21T02:56:40.053Z,10.05
2018-12-21T02:57:40.035Z,9.99
2018-12-21T02:58:40.018Z,9.99
2018-12-21T02:59:40.015Z,10.05
2018-12-21T03:00:39.975Z,10.04
2018-12-21T03:01:39.958Z,10.04
2018-12-21T03:02:39.939Z,10.01
2018-12-21T03:03:39.938Z,9.99
2018-12-21T03:04:39.921Z,9.97
2018-12-21T03:05:39.878Z,10.01
2018-12-21T03:06:39.871Z,10.08
2018-12-21T03:07:39.840Z,10.08
2018-12-21T03:08:39.835Z,10.05
2018-12-21T03:09:39.814Z,10.05
2018-12-21T03:10:39.802Z,10.01
2018-12-21T03:11:39.764Z,10.05
2018-12-21T03:12:39.756Z,10.07
2018-12-21T03:13:39.727Z,10.02
2018-12-21T03:14:39.702Z,10.02
2018-12-21T03:15:39.686Z,9.94
2018-12-21T03:16:39.686Z,9.91
2018-12-21T03:17:39.648Z,9.89
2018-12-21T03:18:39.631Z,9.87
2018-12-21T03:19:39.608Z,9.90
2018-12-21T03:20:39.610Z,9.87
2018-12-21T03:21:39.570Z,9.90
2018-12-21T03:22:39.554Z,9.89
2018-12-21T03:23:39.536Z,9.87
2018-12-21T03:24:39.513Z,9.86
2018-12-21T03:25:39.520Z,9.76
2018-12-21T03:26:39.484Z,9.81
2018-12-21T03:27:39.458Z,9.87
2018-12-21T03:28:39.474Z,9.78
2018-12-21T03:29:39.418Z,9.72
2018-12-21T03:30:39.411Z,9.72
2018-12-21T03:31:39.394Z,9.61
2018-12-21T03:32:39.357Z,9.60
2018-12-21T03:33:39.342Z,9.60
2018-12-21T03:34:39.321Z,9.60
2018-12-21T03:35:39.301Z,9.50
2018-12-21T03:36:39.283Z,9.51
2018-12-21T03:37:39.275Z,9.42
2018-12-21T03:38:39.248Z,9.39
2018-12-21T03:39:39.227Z,9.42
2018-12-21T03:40:39.203Z,9.43
2018-12-21T03:41:39.202Z,9.40
2018-12-21T03:42:39.192Z,9.43
2018-12-21T03:43:39.148Z,9.43
2018-12-21T03:44:39.132Z,9.40
2018-12-21T03:45:39.107Z,9.42
2018-12-21T03:46:39.091Z,9.38
2018-12-21T03:47:39.069Z,9.40
2018-12-21T03:48:39.074Z,9.40
2018-12-21T03:49:39.031Z,9.53
2018-12-21T03:50:39.010Z,9.40
2018-12-21T03:51:38.995Z,9.40
2018-12-21T03:52:38.968Z,9.53
2018-12-21T03:53:38.973Z,9.48
2018-12-21T03:54:38.934Z,9.46
2018-12-21T03:55:38.918Z,9.43
2018-12-21T03:56:38.899Z,9.53
2018-12-21T03:57:38.877Z,9.47
2018-12-21T03:58:38.857Z,9.43
2018-12-21T03:59:38.861Z,9.48
2018-12-21T04:00:38.819Z,9.46
2018-12-21T04:01:38.805Z,9.50
2018-12-21T04:02:38.782Z,9.53
2018-12-21T04:03:38.776Z,9.58
2018-12-21T04:04:38.741Z,9.60
2018-12-21T04:05:38.744Z,9.50
2018-12-21T04:06:38.702Z,9.61
2018-12-21T04:07:38.691Z,9.54
2018-12-21T04:08:38.663Z,9.61
2018-12-21T04:09:38.642Z,9.65
2018-12-21T04:10:38.625Z,9.61
2018-12-21T04:11:38.623Z,9.64
2018-12-21T04:12:38.588Z,9.51
2018-12-21T04:13:38.568Z,9.46
2018-12-21T04:14:38.549Z,9.39
2018-12-21T04:15:38.530Z,9.38
2018-12-21T04:16:38.515Z,9.35
2018-12-21T04:17:38.508Z,9.31
2018-12-21T04:18:38.660Z,9.31
2018-12-21T04:19:38.453Z,9.35
2018-12-21T04:20:38.436Z,9.28
2018-12-21T04:21:38.431Z,9.24
2018-12-21T04:22:38.409Z,9.24
2018-12-21T04:23:38.376Z,9.26
2018-12-21T04:24:38.352Z,9.17
2018-12-21T04:25:38.356Z,9.29
2018-12-21T04:26:38.315Z,9.20
2018-12-21T04:27:38.296Z,9.20
2018-12-21T04:28:38.279Z,9.26
2018-12-21T04:29:38.256Z,9.17
2018-12-21T04:30:38.251Z,9.28
2018-12-21T04:31:38.233Z,9.33
2018-12-21T04:32:38.201Z,9.33
2018-12-21T04:33:38.178Z,9.31
2018-12-21T04:34:38.157Z,9.33
2018-12-21T04:35:38.142Z,9.28
2018-12-21T04:36:38.149Z,9.26
2018-12-21T04:37:38.103Z,9.17
2018-12-21T04:38:38.085Z,8.99
2018-12-21T04:39:38.061Z,9.10
2018-12-21T04:40:38.048Z,9.01
2018-12-21T04:41:38.021Z,8.95
2018-12-21T04:42:38.022Z,8.95
2018-12-21T04:43:37.982Z,8.87
2018-12-21T04:44:37.964Z,8.76
2018-12-21T04:45:37.943Z,8.95
2018-12-21T04:46:37.925Z,8.79
2018-12-21T04:47:37.931Z,8.89
2018-12-21T04:48:37.894Z,8.79
2018-12-21T04:49:37.866Z,8.80
2018-12-21T04:50:37.843Z,8.70
2018-12-21T04:51:37.827Z,8.74
2018-12-21T04:52:43.260Z,8.71
2018-12-21T04:53:37.792Z,8.66
2018-12-21T04:54:37.766Z,8.58
2018-12-21T04:55:37.739Z,8.59
2018-12-21T04:56:37.743Z,8.58
2018-12-21T04:57:37.727Z,8.56
2018-12-21T04:58:37.682Z,8.61
2018-12-21T04:59:37.682Z,8.55
2018-12-21T05:00:37.647Z,8.55
2018-12-21T05:01:37.629Z,8.59
2018-12-21T05:02:37.604Z,8.58
2018-12-21T05:03:37.586Z,8.52
2018-12-21T05:04:37.587Z,8.53
2018-12-21T05:05:39.480Z,8.53
2018-12-21T05:06:37.529Z,8.55
2018-12-21T05:07:37.504Z,8.53
2018-12-21T05:08:37.488Z,8.58
2018-12-21T05:09:37.470Z,8.55
2018-12-21T05:10:37.464Z,8.55
2018-12-21T05:11:37.427Z,8.59
2018-12-21T05:12:37.407Z,8.58
2018-12-21T05:13:37.390Z,8.59
2018-12-21T05:14:37.366Z,8.58
2018-12-21T05:15:37.372Z,8.61
2018-12-21T05:16:37.327Z,8.63
2018-12-21T05:17:37.309Z,8.70
2018-12-21T05:18:37.286Z,8.53
2018-12-21T05:19:37.269Z,8.56
2018-12-21T05:20:37.257Z,8.61
2018-12-21T05:21:38.013Z,8.66
2018-12-21T05:22:37.209Z,8.61
2018-12-21T05:23:37.252Z,8.56
2018-12-21T05:24:37.176Z,8.62
2018-12-21T05:25:37.150Z,8.56
2018-12-21T05:26:37.136Z,8.55
2018-12-21T05:27:37.133Z,8.56
2018-12-21T05:28:37.088Z,8.61
2018-12-21T05:29:37.065Z,8.70
2018-12-21T05:30:37.052Z,8.66
2018-12-21T05:31:37.127Z,8.68
2018-12-21T05:32:37.017Z,8.66
2018-12-21T05:33:37.008Z,8.65
2018-12-21T05:34:36.968Z,8.70
2018-12-21T05:35:36.947Z,8.68
2018-12-21T05:36:36.933Z,8.66
2018-12-21T05:37:36.908Z,8.76
2018-12-21T05:38:36.905Z,8.74
2018-12-21T05:39:36.863Z,8.73
2018-12-21T05:40:36.848Z,8.73
2018-12-21T05:41:36.829Z,8.79
2018-12-21T05:42:36.808Z,8.83
2018-12-21T05:43:36.788Z,8.77
2018-12-21T05:44:36.792Z,8.77
2018-12-21T05:45:36.763Z,8.70
2018-12-21T05:46:36.724Z,8.73
2018-12-21T05:47:36.704Z,8.79
2018-12-21T05:48:36.704Z,8.73
2018-12-21T05:49:36.671Z,8.79
2018-12-21T05:50:36.647Z,8.81
2018-12-21T05:51:36.634Z,8.77
2018-12-21T05:52:36.615Z,8.77
2018-12-21T05:53:36.587Z,8.79
2018-12-21T05:54:36.587Z,8.84
2018-12-21T05:55:36.559Z,8.77
2018-12-21T05:56:36.533Z,8.80
2018-12-21T05:57:36.507Z,8.81
2018-12-21T05:58:36.478Z,8.77
2018-12-21T05:59:36.472Z,8.83
2018-12-21T06:00:36.457Z,8.77
2018-12-21T06:01:36.424Z,8.86
2018-12-21T06:02:36.415Z,8.83
2018-12-21T06:03:36.395Z,8.86
2018-12-21T06:04:36.362Z,8.73
2018-12-21T06:05:36.355Z,8.84
2018-12-21T06:06:36.340Z,8.84
2018-12-21T06:07:36.300Z,8.76
2018-12-21T06:08:36.287Z,8.83
2018-12-21T06:09:36.264Z,8.81
2018-12-21T06:10:36.249Z,8.79
2018-12-21T06:11:36.223Z,8.79
2018-12-21T06:12:36.219Z,8.81
2018-12-21T06:13:36.182Z,8.86
2018-12-21T06:14:36.158Z,8.83
2018-12-21T06:15:36.152Z,8.74
2018-12-21T06:16:36.123Z,8.83
2018-12-21T06:17:36.123Z,8.80
2018-12-21T06:18:36.121Z,8.84
2018-12-21T06:19:36.062Z,8.80
2018-12-21T06:20:36.042Z,8.80
2018-12-21T06:21:36.018Z,8.83
2018-12-21T06:22:35.998Z,8.81
2018-12-21T06:23:35.997Z,8.76
2018-12-21T06:24:35.970Z,8.77
2018-12-21T06:25:35.940Z,8.80
2018-12-21T06:26:35.917Z,8.73
2018-12-21T06:27:35.925Z,8.80
2018-12-21T06:28:35.895Z,8.77
2018-12-21T06:29:35.867Z,8.83
2018-12-21T06:30:35.936Z,8.77
2018-12-21T06:31:35.821Z,8.79
2018-12-21T06:32:35.797Z,8.80
2018-12-21T06:33:35.791Z,8.86
2018-12-21T06:34:35.762Z,8.79
2018-12-21T06:35:35.790Z,8.79
2018-12-21T06:36:35.716Z,8.81
2018-12-21T06:37:35.714Z,8.80
2018-12-21T06:38:35.676Z,8.81
2018-12-21T06:39:35.669Z,8.81
2018-12-21T06:40:35.654Z,8.80
2018-12-21T06:41:35.619Z,8.80
2018-12-21T06:42:35.593Z,8.83
2018-12-21T06:43:35.589Z,8.83
2018-12-21T06:44:35.576Z,8.81
2018-12-21T06:45:35.539Z,8.77
2018-12-21T06:46:35.529Z,8.83
2018-12-21T06:47:35.513Z,8.83
2018-12-21T06:48:35.475Z,8.79
2018-12-21T06:49:35.453Z,8.80
2018-12-21T06:50:35.436Z,8.81
2018-12-21T06:51:35.414Z,8.83
2018-12-21T06:52:35.399Z,8.84
2018-12-21T06:53:35.405Z,8.81
2018-12-21T06:54:35.357Z,8.81
2018-12-21T06:55:35.333Z,8.80
2018-12-21T06:56:35.315Z,8.87
2018-12-21T06:59:28.933Z,8.86
2018-12-21T07:00:28.899Z,8.91
2018-12-21T07:01:28.880Z,8.81
2018-12-21T07:02:28.859Z,8.89
2018-12-21T07:03:28.855Z,8.89
2018-12-21T07:04:28.818Z,8.91
2018-12-21T07:05:28.800Z,8.80
2018-12-21T07:06:28.781Z,8.83
2018-12-21T07:07:28.771Z,8.86
2018-12-21T07:08:28.742Z,8.87
2018-12-21T07:09:28.739Z,8.83
2018-12-21T07:10:28.713Z,8.86
2018-12-21T07:11:28.671Z,8.98
2018-12-21T07:12:28.656Z,8.84
2018-12-21T07:13:28.647Z,8.83
2018-12-21T07:14:28.626Z,8.91
2018-12-21T07:15:28.622Z,8.94
2018-12-21T07:16:28.588Z,9.01
2018-12-21T07:17:28.555Z,8.99
2018-12-21T07:18:28.548Z,9.01
2018-12-21T07:19:28.515Z,8.99
2018-12-21T07:20:28.511Z,8.95
2018-12-21T07:21:28.477Z,8.92
2018-12-21T07:22:28.464Z,8.92
2018-12-21T07:23:28.436Z,8.91
2018-12-21T07:24:28.417Z,8.95
2018-12-21T07:25:28.416Z,8.98
2018-12-21T07:26:28.374Z,9.01
2018-12-21T07:27:28.376Z,8.94
2018-12-21T07:28:28.349Z,9.10
2018-12-21T07:29:28.316Z,8.99
2018-12-21T07:30:28.294Z,8.96
2018-12-21T07:31:28.278Z,9.08
2018-12-21T07:32:28.254Z,9.04
2018-12-21T07:33:28.255Z,9.08
2018-12-21T07:34:28.228Z,9.13
2018-12-21T07:35:28.201Z,9.05
2018-12-21T07:36:28.178Z,9.11
2018-12-21T07:37:28.175Z,9.11
2018-12-21T07:38:28.144Z,9.15
2018-12-21T07:39:28.134Z,9.21
2018-12-21T07:40:28.097Z,9.15
2018-12-21T07:41:28.084Z,9.17
2018-12-21T07:42:28.058Z,9.18
2018-12-21T07:43:28.070Z,9.17
2018-12-21T07:44:28.017Z,9.24
2018-12-21T07:45:27.995Z,9.23
2018-12-21T07:46:27.981Z,9.28
2018-12-21T07:47:27.959Z,9.20
2018-12-21T07:48:27.954Z,9.17
2018-12-21T07:49:27.919Z,9.26
2018-12-21T07:50:27.903Z,9.28
2018-12-21T07:51:27.878Z,9.31
2018-12-21T07:52:27.861Z,9.23
2018-12-21T07:53:35.685Z,9.31
2018-12-21T07:54:27.820Z,9.29
2018-12-21T07:55:27.878Z,9.31
2018-12-21T07:56:27.793Z,9.26
2018-12-21T07:57:27.761Z,9.28
2018-12-21T07:58:27.748Z,9.23
2018-12-21T07:59:27.720Z,9.28
2018-12-21T08:00:27.702Z,9.31
2018-12-21T08:01:27.713Z,9.40
2018-12-21T08:02:27.663Z,9.46
2018-12-21T08:03:27.643Z,9.36
2018-12-21T08:04:27.620Z,9.42
2018-12-21T08:05:27.601Z,9.48
2018-12-21T08:06:27.584Z,9.36
2018-12-21T08:07:27.585Z,9.51
2018-12-21T08:08:27.542Z,9.47
2018-12-21T08:09:27.525Z,9.39
2018-12-21T08:10:27.499Z,9.50
2018-12-21T08:11:27.480Z,9.50
2018-12-21T08:12:27.481Z,9.61
2018-12-21T08:13:27.442Z,9.53
2018-12-21T08:14:27.565Z,9.58
2018-12-21T08:15:27.400Z,9.60
2018-12-21T08:16:27.387Z,9.54
2018-12-21T08:17:27.362Z,9.56
2018-12-21T08:18:27.374Z,9.56
2018-12-21T08:19:27.319Z,9.68
2018-12-21T08:20:27.315Z,9.57
2018-12-21T08:21:27.287Z,9.65
2018-12-21T08:22:27.267Z,9.68
2018-12-21T08:23:27.245Z,9.60
2018-12-21T08:24:27.273Z,9.65
2018-12-21T08:25:27.201Z,9.61
2018-12-21T08:26:27.200Z,9.60
2018-12-21T08:27:27.169Z,9.57
2018-12-21T08:28:27.145Z,9.58
2018-12-21T08:29:27.126Z,9.54
2018-12-21T08:30:27.128Z,9.60
2018-12-21T08:31:27.091Z,9.60
2018-12-21T08:32:27.068Z,9.61
2018-12-21T08:33:27.060Z,9.60
2018-12-21T08:34:27.030Z,9.60
2018-12-21T08:35:27.018Z,9.51
2018-12-21T08:36:27.026Z,9.58
2018-12-21T08:37:26.977Z,9.60
2018-12-21T08:38:26.955Z,9.66
2018-12-21T08:39:26.929Z,9.54
2018-12-21T08:40:26.909Z,9.58
2018-12-21T08:41:26.907Z,9.61
2018-12-21T08:42:26.889Z,9.60
2018-12-21T08:43:26.857Z,9.60
2018-12-21T08:44:26.826Z,9.61
2018-12-21T08:45:26.810Z,9.64
2018-12-21T08:46:26.786Z,9.65
2018-12-21T08:47:26.797Z,9.60
2018-12-21T08:48:26.769Z,9.58
2018-12-21T08:49:26.735Z,9.54
2018-12-21T08:50:26.710Z,9.53
2018-12-21T08:51:26.691Z,9.57
2018-12-21T08:52:26.672Z,9.58
2018-12-21T08:53:26.671Z,9.58
2018-12-21T08:54:26.637Z,9.65
2018-12-21T08:55:26.618Z,9.60
2018-12-21T08:56:26.602Z,9.60
2018-12-21T08:57:26.570Z,9.58
2018-12-21T08:58:26.570Z,9.57
2018-12-21T08:59:26.547Z,9.57
2018-12-21T09:00:26.521Z,9.60
2018-12-21T09:01:26.533Z,9.57
2018-12-21T09:02:26.473Z,9.60
2018-12-21T09:03:26.451Z,9.56
2018-12-21T09:04:32.155Z,9.58
2018-12-21T09:05:26.414Z,9.58
2018-12-21T09:06:26.404Z,9.60
2018-12-21T09:07:26.395Z,9.61
2018-12-21T09:08:26.370Z,9.57
2018-12-21T09:09:26.332Z,9.61
2018-12-21T09:10:26.314Z,9.64
2018-12-21T09:11:26.296Z,9.60
2018-12-21T09:12:26.285Z,9.61
2018-12-21T09:13:26.277Z,9.58
2018-12-21T09:14:26.239Z,9.58
2018-12-21T09:15:26.245Z,9.54
2018-12-21T09:16:26.233Z,9.57
2018-12-21T09:17:26.179Z,9.58
2018-12-21T09:18:26.157Z,9.58
2018-12-21T09:19:26.145Z,9.60
2018-12-21T09:20:26.122Z,9.60
2018-12-21T09:21:26.103Z,9.61
2018-12-21T09:22:26.100Z,9.60
2018-12-21T09:23:26.059Z,9.58
2018-12-21T09:24:26.059Z,9.66
2018-12-21T09:25:26.025Z,9.65
2018-12-21T09:26:26.001Z,9.61
2018-12-21T09:27:25.979Z,9.53
2018-12-21T09:28:25.978Z,9.60
2018-12-21T09:29:25.943Z,9.58
2018-12-21T09:30:25.941Z,9.51
2018-12-21T09:31:25.913Z,9.53
2018-12-21T09:32:25.885Z,9.48
2018-12-21T09:33:25.860Z,9.57
2018-12-21T09:34:25.854Z,9.60
2018-12-21T09:35:25.823Z,9.54
2018-12-21T09:36:25.826Z,9.56
2018-12-21T09:37:25.811Z,9.51
2018-12-21T09:38:25.763Z,9.43
2018-12-21T09:39:25.751Z,9.64
2018-12-21T09:40:25.730Z,9.65
2018-12-21T09:41:25.715Z,9.58
2018-12-21T09:42:25.705Z,9.57
2018-12-21T09:43:25.670Z,9.60
2018-12-21T09:44:25.647Z,9.66
2018-12-21T09:45:25.628Z,9.60
2018-12-21T09:46:25.612Z,9.60
2018-12-21T09:47:25.590Z,9.69
2018-12-21T09:48:25.588Z,9.69
2018-12-21T09:49:25.565Z,9.71
2018-12-21T09:50:25.532Z,9.74
2018-12-21T09:51:25.510Z,9.72
2018-12-21T09:52:25.491Z,9.72
2018-12-21T09:53:25.491Z,9.74
2018-12-21T09:54:25.453Z,9.79
2018-12-21T09:55:25.440Z,9.83
2018-12-21T09:56:25.420Z,9.89
2018-12-21T09:57:25.404Z,9.89
2018-12-21T09:58:25.391Z,9.90
2018-12-21T09:59:25.351Z,9.87
2018-12-21T10:00:25.334Z,9.97
2018-12-21T10:01:25.314Z,9.96
2018-12-21T10:02:25.302Z,10.12
2018-12-21T10:03:25.293Z,10.27
2018-12-21T10:04:25.272Z,10.29
2018-12-21T10:05:25.263Z,10.42
2018-12-21T10:06:25.219Z,10.52
2018-12-21T10:07:27.668Z,10.63
2018-12-21T10:08:25.200Z,10.74
2018-12-21T10:09:26.007Z,10.78
2018-12-21T10:10:25.152Z,10.92
2018-12-21T10:11:25.122Z,11.10
2018-12-21T10:12:25.102Z,11.21
2018-12-21T10:13:25.104Z,11.27
2018-12-21T10:14:25.072Z,11.39
2018-12-21T10:15:25.048Z,11.37
2018-12-21T10:16:25.024Z,11.60
2018-12-21T10:17:25.011Z,11.69
2018-12-21T10:18:24.989Z,11.79
2018-12-21T10:19:24.992Z,11.79
2018-12-21T10:20:24.948Z,11.83
2018-12-21T10:21:24.926Z,11.96
2018-12-21T10:22:24.911Z,11.99
2018-12-21T10:23:24.893Z,12.04
2018-12-21T10:24:24.879Z,12.10
2018-12-21T10:25:24.870Z,12.07
2018-12-21T10:26:24.836Z,12.14
2018-12-21T10:27:24.816Z,12.17
2018-12-21T10:28:24.809Z,12.12
2018-12-21T10:29:24.789Z,12.14
2018-12-21T10:30:24.780Z,12.17
2018-12-21T10:31:24.742Z,12.17
2018-12-21T10:32:24.719Z,12.21
2018-12-21T10:33:24.703Z,12.28
2018-12-21T10:34:24.683Z,12.21
2018-12-21T10:35:24.689Z,12.32
2018-12-21T10:36:24.641Z,12.28
2018-12-21T10:37:24.632Z,12.37
2018-12-21T10:38:24.604Z,12.37
2018-12-21T10:39:24.591Z,12.39
2018-12-21T10:40:24.613Z,12.47
2018-12-21T10:41:24.552Z,12.53
2018-12-21T10:42:26.774Z,12.56
2018-12-21T10:43:24.526Z,12.57
2018-12-21T10:44:24.498Z,12.54
2018-12-21T10:45:24.480Z,12.54
2018-12-21T10:46:24.477Z,12.56
2018-12-21T10:47:24.442Z,12.54
2018-12-21T10:48:24.426Z,12.56
2018-12-21T10:49:24.415Z,12.54
2018-12-21T10:50:24.408Z,12.67
2018-12-21T10:51:24.370Z,12.64
2018-12-21T10:52:24.364Z,12.71
2018-12-21T10:53:25.023Z,12.67
2018-12-21T10:54:26.894Z,12.71
2018-12-21T10:55:24.320Z,12.78
2018-12-21T10:56:24.368Z,12.75
2018-12-21T10:57:24.353Z,12.87
2018-12-21T10:58:24.238Z,12.86
2018-12-21T10:59:25.064Z,12.85
2018-12-21T11:00:25.077Z,12.93
2018-12-21T11:01:24.382Z,12.92
2018-12-21T11:02:24.347Z,12.97
2018-12-21T11:03:24.309Z,13.04
2018-12-21T11:04:24.130Z,13.11
2018-12-21T11:05:24.127Z,13.10
2018-12-21T11:06:25.990Z,13.11
2018-12-21T11:07:25.033Z,13.11
2018-12-21T11:08:24.056Z,13.10
2018-12-21T11:09:24.051Z,13.11
2018-12-21T11:10:24.036Z,13.15
2018-12-21T11:11:24.012Z,13.11
2018-12-21T11:12:23.990Z,13.15
2018-12-21T11:13:23.986Z,13.12
2018-12-21T11:14:23.958Z,13.17
2018-12-21T11:15:23.938Z,13.22
2018-12-21T11:16:23.925Z,13.23
2018-12-21T11:17:23.900Z,13.32
2018-12-21T11:18:23.882Z,13.22
2018-12-21T11:19:23.882Z,13.20
2018-12-21T11:20:23.865Z,13.36
2018-12-21T11:21:23.830Z,13.26
2018-12-21T11:22:23.833Z,13.36
2018-12-21T11:23:23.789Z,13.38
2018-12-21T11:24:23.772Z,13.36
2018-12-21T11:25:24.494Z,13.51
2018-12-21T11:26:23.747Z,13.49
2018-12-21T11:27:23.733Z,13.51
2018-12-21T11:28:25.435Z,13.52
2018-12-21T11:29:23.686Z,13.64
2018-12-21T11:30:23.673Z,13.59
2018-12-21T11:31:23.662Z,13.62
2018-12-21T11:32:23.633Z,13.75
2018-12-21T11:33:23.633Z,13.75
2018-12-21T11:34:23.598Z,13.66
2018-12-21T11:35:23.586Z,13.62
2018-12-21T11:36:23.590Z,13.70
2018-12-21T11:39:05.962Z,13.77
2018-12-21T11:40:05.959Z,13.79
2018-12-21T11:41:06.538Z,13.97
2018-12-21T11:42:10.508Z,13.96
2018-12-21T11:43:05.894Z,14.07
2018-12-21T11:44:05.886Z,14.04
2018-12-21T11:45:05.859Z,13.99
2018-12-21T11:46:05.843Z,14.17
2018-12-21T11:47:05.843Z,14.17
2018-12-21T11:48:05.812Z,14.07
2018-12-21T11:49:05.804Z,14.14
2018-12-21T11:50:05.777Z,14.17
2018-12-21T11:51:05.756Z,14.17
2018-12-21T11:52:05.839Z,14.15
2018-12-21T11:53:05.741Z,14.17
2018-12-21T11:54:06.555Z,14.20
2018-12-21T11:55:05.698Z,14.17
2018-12-21T11:56:05.694Z,14.14
2018-12-21T11:57:05.651Z,14.12
2018-12-21T11:58:05.640Z,14.03
2018-12-21T11:59:05.624Z,13.99
2018-12-21T12:00:05.604Z,13.89
2018-12-21T12:01:06.503Z,13.78
2018-12-21T12:02:05.590Z,13.82
2018-12-21T12:03:05.559Z,13.91
2018-12-21T12:04:05.544Z,13.92
2018-12-21T12:05:05.513Z,13.82
2018-12-21T12:06:05.501Z,13.81
2018-12-21T12:07:05.478Z,13.87
2018-12-21T12:08:05.461Z,13.99
2018-12-21T12:09:06.292Z,14.04
2018-12-21T12:10:05.442Z,13.97
2018-12-21T12:11:05.404Z,13.95
2018-12-21T12:12:05.414Z,13.99
2018-12-21T12:13:05.367Z,14.25
2018-12-21T12:14:06.568Z,14.28
2018-12-21T12:15:05.367Z,14.24
2018-12-21T12:16:05.335Z,14.29
2018-12-21T12:20:29.497Z,14.36
2018-12-21T12:21:29.486Z,14.36
2018-12-21T12:22:30.092Z,14.33
2018-12-21T12:23:30.515Z,14.35
2018-12-21T12:24:30.078Z,14.21
2018-12-21T12:25:29.513Z,14.28
2018-12-21T12:26:30.042Z,14.27
2018-12-21T12:27:29.512Z,14.18
2018-12-21T12:28:29.517Z,14.28
2018-12-21T12:29:29.407Z,14.24
2018-12-21T12:30:29.342Z,14.21
2018-12-21T12:31:29.312Z,14.25
2018-12-21T12:32:30.050Z,14.17
2018-12-21T12:33:29.257Z,14.14
2018-12-21T12:34:29.235Z,14.09
2018-12-21T12:35:29.227Z,13.97
2018-12-21T12:36:29.211Z,13.97
2018-12-21T12:37:29.201Z,13.97
2018-12-21T12:38:29.190Z,13.81
2018-12-21T12:39:29.150Z,13.81
2018-12-21T12:40:29.132Z,13.82
2018-12-21T12:41:29.130Z,13.70
2018-12-21T12:42:29.113Z,13.67
2018-12-21T12:43:29.087Z,13.67
2018-12-21T12:44:31.010Z,13.77
2018-12-21T12:45:29.067Z,13.73
2018-12-21T12:46:30.012Z,13.69
2018-12-21T12:47:29.024Z,13.63
2018-12-21T12:48:29.013Z,13.66
2018-12-21T12:49:28.975Z,13.67
2018-12-21T12:50:28.957Z,13.57
2018-12-21T12:51:28.964Z,13.66
2018-12-21T12:52:28.924Z,13.60
2018-12-21T12:53:28.923Z,13.59
2018-12-21T12:54:28.890Z,13.63
2018-12-21T12:55:33.513Z,13.57
2018-12-21T12:56:29.567Z,13.60
2018-12-21T12:57:29.605Z,13.60
2018-12-21T12:58:28.846Z,13.60
2018-12-21T12:59:28.813Z,13.60
2018-12-21T13:02:11.008Z,13.59
2018-12-21T13:03:10.965Z,13.57
2018-12-21T13:04:10.943Z,13.62
2018-12-21T13:05:10.949Z,13.64
2018-12-21T13:06:10.919Z,13.67
2018-12-21T13:07:10.900Z,13.71
2018-12-21T13:08:10.911Z,13.96
2018-12-21T13:09:10.863Z,13.92
2018-12-21T13:10:10.842Z,13.88
2018-12-21T13:11:10.915Z,13.96
2018-12-21T13:12:11.563Z,13.97
2018-12-21T13:13:10.788Z,13.99
2018-12-21T13:14:10.776Z,14.04
2018-12-21T13:16:52.990Z,14.10
2018-12-21T13:17:52.983Z,14.07
2018-12-21T13:18:53.043Z,14.17
2018-12-21T13:19:52.933Z,14.29
2018-12-21T13:20:52.918Z,14.07
2018-12-21T13:21:52.910Z,14.02